createdAt,value
2022-10-11T00:02:16.615Z,78.08
2022-10-11T00:04:44.549Z,77.54
2022-10-11T00:07:20.816Z,77.60
2022-10-11T00:09:48.872Z,78.28
2022-10-11T00:12:22.865Z,78.18
2022-10-11T00:14:51.142Z,78.01
2022-10-11T00:17:19.108Z,77.80
2022-10-11T00:19:46.984Z,77.85
2022-10-11T00:22:15.662Z,78.14
2022-10-11T00:24:48.143Z,77.58
2022-10-11T00:27:16.473Z,78.60
2022-10-11T00:29:46.844Z,77.25
2022-10-11T00:32:15.323Z,77.93
2022-10-11T00:34:45.173Z,77.79
2022-10-11T00:37:20.478Z,77.79
2022-10-11T00:39:50.819Z,77.84
2022-10-11T00:42:18.879Z,77.80
2022-10-11T00:44:51.084Z,77.89
2022-10-11T00:47:21.307Z,78.02
2022-10-11T00:49:54.350Z,77.41
2022-10-11T00:52:31.677Z,77.62
2022-10-11T00:55:03.991Z,77.35
2022-10-11T00:57:36.399Z,77.22
2022-10-11T01:00:09.369Z,77.88
2022-10-11T01:02:38.158Z,77.43
2022-10-11T01:05:28.036Z,77.58
2022-10-11T01:07:58.134Z,78.27
2022-10-11T01:10:31.016Z,77.46
2022-10-11T01:13:16.599Z,77.79
2022-10-11T01:15:56.970Z,77.30
2022-10-11T01:18:31.902Z,77.29
2022-10-11T01:21:08.183Z,77.81
2022-10-11T01:24:08.337Z,77.56
2022-10-11T01:27:02.799Z,77.36
2022-10-11T01:29:47.372Z,78.27
2022-10-11T01:32:18.332Z,78.86
2022-10-11T01:35:04.895Z,77.77
2022-10-11T01:37:37.334Z,77.44
2022-10-11T01:40:09.090Z,77.64
2022-10-11T01:42:40.207Z,77.09
2022-10-11T01:45:23.445Z,77.16
2022-10-11T01:48:04.893Z,77.48
2022-10-11T01:50:40.961Z,77.62
2022-10-11T01:53:38.454Z,77.38
2022-10-11T01:56:20.959Z,77.34
2022-10-11T01:58:58.035Z,77.68
2022-10-11T02:01:37.586Z,77.62
2022-10-11T02:04:17.873Z,77.54
2022-10-11T02:06:52.065Z,77.25
2022-10-11T02:09:29.638Z,77.21
2022-10-11T02:12:23.862Z,77.61
2022-10-11T02:14:55.713Z,77.28
2022-10-11T02:17:30.021Z,77.75
2022-10-11T02:20:14.464Z,78.51
2022-10-11T02:22:58.900Z,77.15
2022-10-11T02:25:32.110Z,77.49
2022-10-11T02:28:09.432Z,77.03
2022-10-11T02:30:43.092Z,77.64
2022-10-11T02:33:15.577Z,77.64
2022-10-11T02:35:48.351Z,77.01
2022-10-11T02:38:21.946Z,77.13
2022-10-11T02:40:55.359Z,76.90
2022-10-11T02:43:36.136Z,77.39
2022-10-11T02:46:07.545Z,77.27
2022-10-11T02:48:39.729Z,77.04
2022-10-11T02:51:14.277Z,77.21
2022-10-11T02:53:42.254Z,76.98
2022-10-11T02:56:10.181Z,77.14
2022-10-11T02:58:38.078Z,77.08
2022-10-11T03:01:15.791Z,77.28
2022-10-11T03:03:43.774Z,77.45
2022-10-11T03:06:12.924Z,77.18
2022-10-11T03:08:40.784Z,77.58
2022-10-11T03:11:08.979Z,77.24
2022-10-11T03:13:36.852Z,77.32
2022-10-11T03:16:04.913Z,77.04
2022-10-11T03:18:32.777Z,76.68
2022-10-11T03:21:00.825Z,77.02
2022-10-11T03:23:30.158Z,77.26
2022-10-11T03:26:00.938Z,77.28
2022-10-11T03:28:33.570Z,77.24
2022-10-11T03:31:03.697Z,77.02
2022-10-11T03:33:34.584Z,76.95
2022-10-11T03:36:19.164Z,76.75
2022-10-11T03:38:51.018Z,78.85
2022-10-11T03:41:20.496Z,78.01
2022-10-11T03:43:51.431Z,77.49
2022-10-11T03:46:22.483Z,77.52
2022-10-11T03:48:50.585Z,77.03
2022-10-11T03:51:18.599Z,77.32
2022-10-11T03:53:46.548Z,77.27
2022-10-11T03:56:19.629Z,77.09
2022-10-11T03:58:47.701Z,77.21
2022-10-11T04:01:15.596Z,77.28
2022-10-11T04:03:46.165Z,77.11
2022-10-11T04:06:14.255Z,77.17
2022-10-11T04:08:42.221Z,77.50
2022-10-11T04:11:15.971Z,77.74
2022-10-11T04:13:45.162Z,77.35
2022-10-11T04:16:13.275Z,77.26
2022-10-11T04:18:41.324Z,77.39
2022-10-11T04:21:11.698Z,77.69
2022-10-11T04:23:41.301Z,77.69
2022-10-11T04:26:09.455Z,77.50
2022-10-11T04:28:37.525Z,77.72
2022-10-11T04:31:13.001Z,77.43
2022-10-11T04:33:41.507Z,77.73
2022-10-11T04:36:18.657Z,78.12
2022-10-11T04:38:46.450Z,77.39
2022-10-11T04:41:15.677Z,77.77
2022-10-11T04:43:49.015Z,77.59
2022-10-11T04:46:18.726Z,77.70
2022-10-11T04:48:55.100Z,77.60
2022-10-11T04:51:23.491Z,77.33
2022-10-11T04:53:52.387Z,77.48
2022-10-11T04:56:20.548Z,77.62
2022-10-11T04:58:49.493Z,77.88
2022-10-11T05:01:18.978Z,78.01
2022-10-11T05:03:47.019Z,77.62
2022-10-11T05:06:14.996Z,77.60
2022-10-11T05:08:45.510Z,77.92
2022-10-11T05:11:17.819Z,77.83
2022-10-11T05:13:49.857Z,77.67
2022-10-11T05:16:29.910Z,77.83
2022-10-11T05:18:57.859Z,77.79
2022-10-11T05:21:27.373Z,78.22
2022-10-11T05:23:57.093Z,78.23
2022-10-11T05:26:27.483Z,77.86
2022-10-11T05:28:56.232Z,77.85
2022-10-11T05:31:25.940Z,77.95
2022-10-11T05:33:53.811Z,78.20
2022-10-11T05:36:22.172Z,77.71
2022-10-11T05:38:55.908Z,78.37
2022-10-11T05:41:26.486Z,78.37
2022-10-11T05:43:54.399Z,78.25
2022-10-11T05:46:24.734Z,77.75
2022-10-11T05:48:56.460Z,77.90
2022-10-11T05:51:31.860Z,77.76
2022-10-11T05:54:12.687Z,77.90
2022-10-11T05:56:44.862Z,77.77
2022-10-11T05:59:19.122Z,77.62
2022-10-11T06:01:49.791Z,77.59
2022-10-11T06:04:22.484Z,77.40
2022-10-11T06:06:50.443Z,77.08
2022-10-11T06:09:21.701Z,76.82
2022-10-11T06:11:49.635Z,76.88
2022-10-11T06:14:17.535Z,77.00
2022-10-11T06:16:46.363Z,76.45
2022-10-11T06:19:14.374Z,76.75
2022-10-11T06:21:55.943Z,76.65
2022-10-11T06:24:24.140Z,76.53
2022-10-11T06:26:57.898Z,76.24
2022-10-11T06:29:25.875Z,76.49
2022-10-11T06:31:53.795Z,76.31
2022-10-11T06:34:25.329Z,76.17
2022-10-11T06:36:57.512Z,75.94
2022-10-11T06:39:25.440Z,76.11
2022-10-11T06:41:59.405Z,75.68
2022-10-11T06:44:27.785Z,75.72
2022-10-11T06:47:00.899Z,75.89
2022-10-11T06:49:28.735Z,75.56
2022-10-11T06:52:00.891Z,75.62
2022-10-11T06:54:28.872Z,75.27
2022-10-11T06:57:10.604Z,75.76
2022-10-11T06:59:52.345Z,75.95
2022-10-11T07:02:20.240Z,75.52
2022-10-11T07:04:53.894Z,75.41
2022-10-11T07:07:23.834Z,75.52
2022-10-11T07:09:54.365Z,75.08
2022-10-11T07:12:36.502Z,75.55
2022-10-11T07:15:04.796Z,75.01
2022-10-11T07:17:39.861Z,74.99
2022-10-11T07:20:14.120Z,75.36
2022-10-11T07:22:43.385Z,74.50
2022-10-11T07:25:45.668Z,74.18
2022-10-11T07:28:13.751Z,73.87
2022-10-11T07:30:47.326Z,74.49
2022-10-11T07:33:15.346Z,73.91
2022-10-11T07:35:48.090Z,73.81
2022-10-11T07:38:18.537Z,74.71
2022-10-11T07:40:50.024Z,74.27
2022-10-11T07:43:21.703Z,74.40
2022-10-11T07:45:54.410Z,74.54
2022-10-11T07:48:22.871Z,74.03
2022-10-11T07:50:58.451Z,73.73
2022-10-11T07:53:27.806Z,73.80
2022-10-11T07:56:03.729Z,73.80
2022-10-11T07:58:33.750Z,73.65
2022-10-11T08:01:01.940Z,73.38
2022-10-11T08:03:56.844Z,73.28
2022-10-11T08:06:31.721Z,73.07
2022-10-11T08:09:12.811Z,72.43
2022-10-11T08:11:43.774Z,72.82
2022-10-11T08:14:38.164Z,72.57
2022-10-11T08:17:06.131Z,72.33
2022-10-11T08:19:40.365Z,71.93
2022-10-11T08:22:11.439Z,71.70
2022-10-11T08:24:50.322Z,71.85
2022-10-11T08:27:31.652Z,71.31
2022-10-11T08:30:07.802Z,71.59
2022-10-11T08:32:46.027Z,71.47
2022-10-11T08:35:17.470Z,71.54
2022-10-11T08:37:51.036Z,71.21
2022-10-11T08:40:22.613Z,71.26
2022-10-11T08:43:00.999Z,71.07
2022-10-11T08:45:34.251Z,70.80
2022-10-11T08:48:18.239Z,71.15
2022-10-11T08:50:58.641Z,71.09
2022-10-11T08:53:38.996Z,71.13
2022-10-11T08:56:13.287Z,70.73
2022-10-11T08:59:12.546Z,70.76
2022-10-11T09:01:50.001Z,70.98
2022-10-11T09:04:19.466Z,71.02
2022-10-11T09:06:56.121Z,70.44
2022-10-11T09:09:44.098Z,70.74
2022-10-11T09:12:19.766Z,70.46
2022-10-11T09:15:26.915Z,70.32
2022-10-11T09:18:31.383Z,70.41
2022-10-11T09:21:17.793Z,70.29
2022-10-11T09:24:20.495Z,70.16
2022-10-11T09:26:56.119Z,70.15
2022-10-11T09:29:41.077Z,70.01
2022-10-11T09:32:16.063Z,70.07
2022-10-11T09:34:44.431Z,70.25
2022-10-11T09:37:26.157Z,70.06
2022-10-11T09:40:23.729Z,70.11
2022-10-11T09:43:10.456Z,69.91
2022-10-11T09:45:49.120Z,69.95
2022-10-11T09:48:21.804Z,69.83
2022-10-11T09:50:54.253Z,69.73
2022-10-11T09:54:01.401Z,69.42
2022-10-11T09:56:31.283Z,69.55
2022-10-11T09:59:19.798Z,69.37
2022-10-11T10:02:19.184Z,69.47
2022-10-11T10:05:24.217Z,69.22
2022-10-11T10:08:22.482Z,69.19
2022-10-11T10:11:00.181Z,68.66
2022-10-11T10:13:45.968Z,69.05
2022-10-11T10:16:24.994Z,69.45
2022-10-11T10:18:57.812Z,69.12
2022-10-11T10:21:34.256Z,69.34
2022-10-11T10:24:06.899Z,69.49
2022-10-11T10:26:37.732Z,69.57
2022-10-11T10:29:20.985Z,68.86
2022-10-11T10:32:15.235Z,68.54
2022-10-11T10:35:00.614Z,69.13
2022-10-11T10:37:36.608Z,69.11
2022-10-11T10:40:10.267Z,68.94
2022-10-11T10:42:39.087Z,68.37
2022-10-11T10:45:20.228Z,69.21
2022-10-11T10:48:19.269Z,68.43
2022-10-11T10:50:55.649Z,68.10
2022-10-11T10:53:30.103Z,67.97
2022-10-11T10:56:11.725Z,67.87
2022-10-11T10:59:02.757Z,67.45
2022-10-11T11:01:33.352Z,67.99
2022-10-11T11:04:08.734Z,68.32
2022-10-11T11:06:43.539Z,67.84
2022-10-11T11:09:31.384Z,67.66
2022-10-11T11:12:09.386Z,68.12
2022-10-11T11:14:48.986Z,67.30
2022-10-11T11:17:27.147Z,67.88
2022-10-11T11:20:05.744Z,68.07
2022-10-11T11:22:45.422Z,68.02
2022-10-11T11:25:25.429Z,68.11
2022-10-11T11:28:08.111Z,67.77
2022-10-11T11:30:57.966Z,67.83
2022-10-11T11:33:38.631Z,67.72
2022-10-11T11:36:20.164Z,67.50
2022-10-11T11:39:09.204Z,67.73
2022-10-11T11:41:41.778Z,67.53
2022-10-11T11:44:17.094Z,67.15
2022-10-11T11:46:51.073Z,66.97
2022-10-11T11:49:23.793Z,67.05
2022-10-11T11:51:52.854Z,67.07
2022-10-11T11:54:43.739Z,66.73
2022-10-11T11:57:42.666Z,66.45
2022-10-11T12:00:19.106Z,66.67
2022-10-11T12:02:56.327Z,66.88
2022-10-11T12:05:31.648Z,67.15
2022-10-11T12:08:02.815Z,66.67
2022-10-11T12:10:56.568Z,65.42
2022-10-11T12:13:42.381Z,66.67
2022-10-11T12:16:13.524Z,66.85
2022-10-11T12:18:53.565Z,66.88
2022-10-11T12:21:32.760Z,66.44
2022-10-11T12:24:02.140Z,66.47
2022-10-11T12:26:48.387Z,66.20
2022-10-11T12:29:49.705Z,65.25
2022-10-11T12:32:56.663Z,65.64
2022-10-11T12:36:14.225Z,65.42
2022-10-11T12:39:01.852Z,65.46
2022-10-11T12:42:07.207Z,65.09
2022-10-11T12:44:35.710Z,65.85
2022-10-11T12:47:28.361Z,66.35
2022-10-11T12:50:22.603Z,66.49
2022-10-11T12:53:02.893Z,66.17
2022-10-11T12:55:52.155Z,65.54
2022-10-11T12:58:41.670Z,66.28
2022-10-11T13:01:49.172Z,66.23
2022-10-11T13:04:20.133Z,66.50
2022-10-11T13:07:14.564Z,65.50
2022-10-11T13:09:49.110Z,66.06
2022-10-11T13:12:23.278Z,65.85
2022-10-11T13:15:21.298Z,66.37
2022-10-11T13:17:54.991Z,66.34
2022-10-11T13:20:31.606Z,65.76
2022-10-11T13:22:59.890Z,65.57
2022-10-11T13:25:37.515Z,65.78
2022-10-11T13:28:10.249Z,66.30
2022-10-11T13:30:50.513Z,66.76
2022-10-11T13:33:23.578Z,66.37
2022-10-11T13:35:52.211Z,65.51
2022-10-11T13:38:26.793Z,65.81
2022-10-11T13:40:57.137Z,66.02
2022-10-11T13:43:30.653Z,66.03
2022-10-11T13:46:01.047Z,65.72
2022-10-11T13:48:43.011Z,66.39
2022-10-11T13:51:28.631Z,66.22
2022-10-11T13:54:09.484Z,65.89
2022-10-11T13:56:47.022Z,65.42
2022-10-11T13:59:20.516Z,64.98
2022-10-11T14:01:49.844Z,65.28
2022-10-11T14:04:41.638Z,64.79
2022-10-11T14:07:23.238Z,65.01
2022-10-11T14:09:53.867Z,64.46
2022-10-11T14:12:35.488Z,64.34
2022-10-11T14:15:08.372Z,64.50
2022-10-11T14:17:47.274Z,64.21
2022-10-11T14:20:22.642Z,64.21
2022-10-11T14:22:53.853Z,64.73
2022-10-11T14:25:23.089Z,64.17
2022-10-11T14:28:02.151Z,64.08
2022-10-11T14:30:33.556Z,64.16
2022-10-11T14:33:18.495Z,63.87
2022-10-11T14:35:53.527Z,63.31
2022-10-11T14:38:31.166Z,61.94
2022-10-11T14:40:58.981Z,60.92
2022-10-11T14:46:35.785Z,60.09
2022-10-11T14:49:03.759Z,61.16
2022-10-11T14:51:42.308Z,62.34
2022-10-11T14:54:11.303Z,63.68
2022-10-11T14:56:39.322Z,63.80
2022-10-11T14:59:07.778Z,64.33
2022-10-11T15:01:36.255Z,64.84
2022-10-11T15:04:04.074Z,64.56
2022-10-11T15:06:35.512Z,64.59
2022-10-11T15:09:05.539Z,64.70
2022-10-11T15:11:34.082Z,64.55
2022-10-11T15:14:01.902Z,64.83
2022-10-11T15:16:29.839Z,65.30
2022-10-11T15:18:57.917Z,65.29
2022-10-11T15:21:28.442Z,65.57
2022-10-11T15:23:57.291Z,66.04
2022-10-11T15:26:28.577Z,65.96
2022-10-11T15:28:58.337Z,65.75
2022-10-11T15:31:26.219Z,65.79
2022-10-11T15:33:54.002Z,66.15
2022-10-11T15:36:23.528Z,66.20
2022-10-11T15:38:51.578Z,66.40
2022-10-11T15:41:21.135Z,66.42
2022-10-11T15:43:50.644Z,66.46
2022-10-11T15:46:22.018Z,66.39
2022-10-11T15:48:50.467Z,66.19
2022-10-11T15:51:19.006Z,66.80
2022-10-11T15:53:47.283Z,66.74
2022-10-11T15:56:18.660Z,67.16
2022-10-11T15:58:47.002Z,67.14
2022-10-11T16:01:18.671Z,67.49
2022-10-11T16:03:47.448Z,67.55
2022-10-11T16:06:15.261Z,67.76
2022-10-11T16:08:43.081Z,67.09
2022-10-11T16:11:12.614Z,66.95
2022-10-11T16:13:40.791Z,66.91
2022-10-11T16:16:10.660Z,67.12
2022-10-11T16:18:40.279Z,67.38
2022-10-11T16:21:10.423Z,67.69
2022-10-11T16:23:39.548Z,67.79
2022-10-11T16:26:10.099Z,67.91
2022-10-11T16:28:38.307Z,67.83
2022-10-11T16:31:10.390Z,67.84
2022-10-11T16:33:45.913Z,67.73
2022-10-11T16:36:35.791Z,68.12
2022-10-11T16:39:07.187Z,68.07
2022-10-11T16:41:35.102Z,68.06
2022-10-11T16:44:02.927Z,68.27
2022-10-11T16:46:32.275Z,68.97
2022-10-11T16:49:02.438Z,68.73
2022-10-11T16:51:30.473Z,68.67
2022-10-11T16:53:58.253Z,68.55
2022-10-11T16:56:26.066Z,69.01
2022-10-11T16:58:54.121Z,69.17
2022-10-11T17:01:22.512Z,69.01
2022-10-11T17:03:51.144Z,69.39
2022-10-11T17:06:21.056Z,68.88
2022-10-11T17:08:48.900Z,69.00
2022-10-11T17:11:17.602Z,69.64
2022-10-11T17:13:46.019Z,69.48
2022-10-11T17:16:13.970Z,69.65
2022-10-11T17:18:41.770Z,69.53
2022-10-11T17:21:13.043Z,69.97
2022-10-11T17:23:42.667Z,69.57
2022-10-11T17:26:16.638Z,69.76
2022-10-11T17:28:44.802Z,69.74
2022-10-11T17:31:12.735Z,69.72
2022-10-11T17:33:40.646Z,69.91
2022-10-11T17:36:17.824Z,69.83
2022-10-11T17:38:47.153Z,69.89
2022-10-11T17:41:15.215Z,69.82
2022-10-11T17:43:43.414Z,69.93
2022-10-11T17:46:13.566Z,69.93
2022-10-11T17:48:42.277Z,69.82
2022-10-11T17:51:11.902Z,70.00
2022-10-11T17:53:40.178Z,70.04
2022-10-11T17:56:12.285Z,70.27
2022-10-11T17:58:40.540Z,70.03
2022-10-11T18:01:12.171Z,70.12
2022-10-11T18:03:40.365Z,70.68
2022-10-11T18:06:10.763Z,70.43
2022-10-11T18:08:40.784Z,71.05
2022-10-11T18:11:13.237Z,70.70
2022-10-11T18:13:45.588Z,70.27
2022-10-11T18:16:14.821Z,70.34
2022-10-11T18:18:42.764Z,70.40
2022-10-11T18:21:11.142Z,71.01
2022-10-11T18:23:39.154Z,70.93
2022-10-11T18:26:13.754Z,70.14
2022-10-11T18:28:42.051Z,70.68
2022-10-11T18:31:13.739Z,70.27
2022-10-11T18:33:42.779Z,70.55
2022-10-11T18:36:13.588Z,70.26
2022-10-11T18:38:46.275Z,70.46
2022-10-11T18:41:19.187Z,70.50
2022-10-11T18:43:50.728Z,70.89
2022-10-11T18:46:19.263Z,70.61
2022-10-11T18:48:49.612Z,71.06
2022-10-11T18:51:19.973Z,71.20
2022-10-11T18:53:49.015Z,70.94
2022-10-11T18:56:20.999Z,71.10
2022-10-11T18:58:50.273Z,71.59
2022-10-11T19:01:19.943Z,71.49
2022-10-11T19:03:50.455Z,71.08
2022-10-11T19:06:21.208Z,71.05
2022-10-11T19:08:50.917Z,71.36
2022-10-11T19:11:21.668Z,71.58
2022-10-11T19:13:49.882Z,71.44
2022-10-11T19:16:18.397Z,71.46
2022-10-11T19:18:50.219Z,71.20
2022-10-11T19:21:18.279Z,71.45
2022-10-11T19:23:48.223Z,71.55
2022-10-11T19:26:18.924Z,71.96
2022-10-11T19:28:49.195Z,72.47
2022-10-11T19:31:17.356Z,71.57
2022-10-11T19:33:48.131Z,71.85
2022-10-11T19:36:16.747Z,72.17
2022-10-11T19:38:46.281Z,72.09
2022-10-11T19:41:15.617Z,71.80
2022-10-11T19:43:43.690Z,71.92
2022-10-11T19:46:20.131Z,72.66
2022-10-11T19:48:55.782Z,72.48
2022-10-11T19:51:25.802Z,72.56
2022-10-11T19:53:57.163Z,72.47
2022-10-11T19:56:26.039Z,72.22
2022-10-11T19:58:54.292Z,72.48
2022-10-11T20:01:25.370Z,72.71
2022-10-11T20:03:55.488Z,71.90
2022-10-11T20:06:27.686Z,72.25
2022-10-11T20:09:23.808Z,73.02
2022-10-11T20:11:44.634Z,72.27
2022-10-11T20:14:12.555Z,72.06
2022-10-11T20:16:42.293Z,72.43
2022-10-11T20:19:10.255Z,72.28
2022-10-11T20:21:38.153Z,72.42
2022-10-11T20:24:08.459Z,73.04
2022-10-11T20:26:36.447Z,72.38
2022-10-11T20:29:04.476Z,72.15
2022-10-11T20:31:34.535Z,72.20
2022-10-11T20:34:07.079Z,73.06
2022-10-11T20:36:36.518Z,72.48
2022-10-11T20:39:05.811Z,72.57
2022-10-11T20:41:36.931Z,72.84
2022-10-11T20:44:05.557Z,73.12
2022-10-11T20:46:35.501Z,72.85
2022-10-11T20:49:06.771Z,73.35
2022-10-11T20:51:37.298Z,73.20
2022-10-11T20:54:05.597Z,72.56
2022-10-11T20:56:34.283Z,73.33
2022-10-11T20:59:02.471Z,73.08
2022-10-11T21:01:32.526Z,72.54
2022-10-11T21:04:01.379Z,73.07
2022-10-11T21:06:32.897Z,73.20
2022-10-11T21:09:01.377Z,73.28
2022-10-11T21:11:31.117Z,73.69
2022-10-11T21:14:00.185Z,73.01
2022-10-11T21:16:29.009Z,72.99
2022-10-11T21:18:59.116Z,73.05
2022-10-11T21:21:27.885Z,73.34
2022-10-11T21:23:57.785Z,73.44
2022-10-11T21:26:26.162Z,72.93
2022-10-11T21:28:54.969Z,73.53
2022-10-11T21:31:31.287Z,73.13
2022-10-11T21:34:02.673Z,73.50
2022-10-11T21:36:30.831Z,73.38
2022-10-11T21:39:00.151Z,74.08
2022-10-11T21:41:30.080Z,73.80
2022-10-11T21:43:58.576Z,73.41
2022-10-11T21:46:54.010Z,73.30
2022-10-11T21:49:17.117Z,73.42
2022-10-11T21:51:45.188Z,73.89
2022-10-11T21:54:14.487Z,73.61
2022-10-11T21:56:42.647Z,73.83
2022-10-11T21:59:12.310Z,73.49
2022-10-11T22:01:41.749Z,74.08
2022-10-11T22:04:11.138Z,73.82
2022-10-11T22:06:39.545Z,73.53
2022-10-11T22:09:09.223Z,74.17
2022-10-11T22:11:39.052Z,74.14
2022-10-11T22:14:07.345Z,74.19
2022-10-11T22:16:35.642Z,73.71
2022-10-11T22:19:03.591Z,74.39
2022-10-11T22:21:31.390Z,73.74
2022-10-11T22:23:59.842Z,74.18
2022-10-11T22:26:30.826Z,74.20
2022-10-11T22:36:00.638Z,74.01
2022-10-11T22:38:29.285Z,73.82
2022-10-11T22:40:59.448Z,74.17
2022-10-11T22:43:29.560Z,73.69
2022-10-11T22:45:57.726Z,74.38
2022-10-11T22:48:28.273Z,74.22
2022-10-11T22:50:56.209Z,73.74
2022-10-11T22:53:25.368Z,74.33
2022-10-11T22:55:53.460Z,74.41
2022-10-11T22:58:21.610Z,74.28
2022-10-11T23:00:51.831Z,73.87
2022-10-11T23:03:20.454Z,74.03
2022-10-11T23:05:56.318Z,74.11
2022-10-11T23:08:25.933Z,74.09
2022-10-11T23:10:53.819Z,74.15
2022-10-11T23:13:23.815Z,74.45
2022-10-11T23:15:54.379Z,74.19
2022-10-11T23:18:22.201Z,74.55
2022-10-11T23:20:52.020Z,74.16
2022-10-11T23:23:19.887Z,74.18
2022-10-11T23:25:49.107Z,73.92
2022-10-11T23:28:16.938Z,74.02
2022-10-11T23:30:53.692Z,74.48
2022-10-11T23:33:21.518Z,74.42
2022-10-11T23:35:52.434Z,74.01
2022-10-11T23:38:20.296Z,74.27
2022-10-11T23:40:49.721Z,74.63
2022-10-11T23:43:17.511Z,74.67
2022-10-11T23:45:49.449Z,74.46
2022-10-11T23:48:20.476Z,74.28
2022-10-11T23:50:48.425Z,74.28
2022-10-11T23:53:16.325Z,74.65
2022-10-11T23:55:44.201Z,74.66
2022-10-11T23:58:13.386Z,74.71
